sensor_id;sensor_type;location;lat;lon;timestamp;temperature;humidity
59977;DHT22;45837;51.076;3.578;2023-04-03T00:01:12;19.60;52.60
59977;DHT22;45837;51.076;3.578;2023-04-03T00:03:37;19.60;53.00
59977;DHT22;45837;51.076;3.578;2023-04-03T00:06:03;19.60;52.80
59977;DHT22;45837;51.076;3.578;2023-04-03T00:08:32;19.60;52.40
59977;DHT22;45837;51.076;3.578;2023-04-03T00:10:58;19.60;52.60
59977;DHT22;45837;51.076;3.578;2023-04-03T00:13:24;19.60;52.80
59977;DHT22;45837;51.076;3.578;2023-04-03T00:15:50;19.50;52.40
59977;DHT22;45837;51.076;3.578;2023-04-03T00:18:16;19.50;52.20
59977;DHT22;45837;51.076;3.578;2023-04-03T00:20:42;19.60;52.80
59977;DHT22;45837;51.076;3.578;2023-04-03T00:23:08;19.50;52.80
59977;DHT22;45837;51.076;3.578;2023-04-03T00:25:33;19.50;52.90
59977;DHT22;45837;51.076;3.578;2023-04-03T00:27:59;19.50;52.80
59977;DHT22;45837;51.076;3.578;2023-04-03T00:30:25;19.50;52.90
59977;DHT22;45837;51.076;3.578;2023-04-03T00:32:51;19.50;52.30
59977;DHT22;45837;51.076;3.578;2023-04-03T00:35:17;19.50;52.30
59977;DHT22;45837;51.076;3.578;2023-04-03T00:37:43;19.50;52.30
59977;DHT22;45837;51.076;3.578;2023-04-03T00:40:10;19.50;52.60
59977;DHT22;45837;51.076;3.578;2023-04-03T00:42:37;19.50;52.20
59977;DHT22;45837;51.076;3.578;2023-04-03T00:47:29;19.50;52.40
59977;DHT22;45837;51.076;3.578;2023-04-03T00:49:56;19.40;52.10
59977;DHT22;45837;51.076;3.578;2023-04-03T00:52:23;19.40;52.10
59977;DHT22;45837;51.076;3.578;2023-04-03T00:54:51;19.40;52.10
59977;DHT22;45837;51.076;3.578;2023-04-03T00:57:17;19.40;52.10
59977;DHT22;45837;51.076;3.578;2023-04-03T00:59:44;19.40;52.50
59977;DHT22;45837;51.076;3.578;2023-04-03T01:02:11;19.40;52.00
59977;DHT22;45837;51.076;3.578;2023-04-03T01:04:38;19.40;52.50
59977;DHT22;45837;51.076;3.578;2023-04-03T01:07:04;19.40;51.90
59977;DHT22;45837;51.076;3.578;2023-04-03T01:09:31;19.30;51.80
59977;DHT22;45837;51.076;3.578;2023-04-03T01:12:17;19.40;51.90
59977;DHT22;45837;51.076;3.578;2023-04-03T01:14:46;19.30;51.70
59977;DHT22;45837;51.076;3.578;2023-04-03T01:25:26;19.30;51.70
59977;DHT22;45837;51.076;3.578;2023-04-03T01:27:53;19.30;52.30
59977;DHT22;45837;51.076;3.578;2023-04-03T01:30:20;19.30;51.70
59977;DHT22;45837;51.076;3.578;2023-04-03T01:32:46;19.30;51.70
59977;DHT22;45837;51.076;3.578;2023-04-03T01:35:12;19.30;52.30
59977;DHT22;45837;51.076;3.578;2023-04-03T01:37:38;19.30;52.00
59977;DHT22;45837;51.076;3.578;2023-04-03T01:40:06;19.20;52.10
59977;DHT22;45837;51.076;3.578;2023-04-03T01:42:33;19.20;51.60
59977;DHT22;45837;51.076;3.578;2023-04-03T01:44:59;19.20;52.30
59977;DHT22;45837;51.076;3.578;2023-04-03T01:47:24;19.20;52.10
59977;DHT22;45837;51.076;3.578;2023-04-03T01:49:50;19.20;52.40
59977;DHT22;45837;51.076;3.578;2023-04-03T01:52:16;19.20;52.20
59977;DHT22;45837;51.076;3.578;2023-04-03T01:54:41;19.20;52.00
59977;DHT22;45837;51.076;3.578;2023-04-03T01:57:08;19.20;52.30
59977;DHT22;45837;51.076;3.578;2023-04-03T01:59:34;19.20;52.20
59977;DHT22;45837;51.076;3.578;2023-04-03T02:02:01;19.20;52.10
59977;DHT22;45837;51.076;3.578;2023-04-03T02:04:27;19.20;52.00
59977;DHT22;45837;51.076;3.578;2023-04-03T02:06:53;19.20;52.10
59977;DHT22;45837;51.076;3.578;2023-04-03T02:09:18;19.20;52.30
59977;DHT22;45837;51.076;3.578;2023-04-03T02:11:44;19.20;52.10
59977;DHT22;45837;51.076;3.578;2023-04-03T02:14:10;19.20;52.10
59977;DHT22;45837;51.076;3.578;2023-04-03T02:16:36;19.10;51.80
59977;DHT22;45837;51.076;3.578;2023-04-03T02:19:02;19.10;51.70
59977;DHT22;45837;51.076;3.578;2023-04-03T02:21:29;19.10;51.80
59977;DHT22;45837;51.076;3.578;2023-04-03T02:23:55;19.10;52.50
59977;DHT22;45837;51.076;3.578;2023-04-03T02:26:20;19.10;52.00
59977;DHT22;45837;51.076;3.578;2023-04-03T02:28:46;19.10;51.90
59977;DHT22;45837;51.076;3.578;2023-04-03T02:31:12;19.10;52.00
59977;DHT22;45837;51.076;3.578;2023-04-03T02:33:40;19.10;51.90
59977;DHT22;45837;51.076;3.578;2023-04-03T02:36:08;19.10;51.70
59977;DHT22;45837;51.076;3.578;2023-04-03T02:38:37;19.10;51.50
59977;DHT22;45837;51.076;3.578;2023-04-03T02:41:03;19.10;51.70
59977;DHT22;45837;51.076;3.578;2023-04-03T02:43:30;19.10;51.40
59977;DHT22;45837;51.076;3.578;2023-04-03T02:45:56;19.10;51.50
59977;DHT22;45837;51.076;3.578;2023-04-03T02:48:22;19.00;52.00
59977;DHT22;45837;51.076;3.578;2023-04-03T02:50:48;19.00;51.50
59977;DHT22;45837;51.076;3.578;2023-04-03T02:53:14;19.00;51.90
59977;DHT22;45837;51.076;3.578;2023-04-03T02:55:41;19.00;51.60
59977;DHT22;45837;51.076;3.578;2023-04-03T02:58:06;19.00;51.80
59977;DHT22;45837;51.076;3.578;2023-04-03T03:00:32;19.00;51.80
59977;DHT22;45837;51.076;3.578;2023-04-03T03:02:57;19.00;51.80
59977;DHT22;45837;51.076;3.578;2023-04-03T03:05:23;19.00;51.70
59977;DHT22;45837;51.076;3.578;2023-04-03T03:07:49;19.00;51.90
59977;DHT22;45837;51.076;3.578;2023-04-03T03:10:15;18.90;51.80
59977;DHT22;45837;51.076;3.578;2023-04-03T03:12:40;18.90;51.50
59977;DHT22;45837;51.076;3.578;2023-04-03T03:15:07;18.90;51.80
59977;DHT22;45837;51.076;3.578;2023-04-03T03:17:33;19.00;51.40
59977;DHT22;45837;51.076;3.578;2023-04-03T03:19:58;18.90;51.40
59977;DHT22;45837;51.076;3.578;2023-04-03T03:22:26;18.90;51.60
59977;DHT22;45837;51.076;3.578;2023-04-03T03:24:51;18.90;51.60
59977;DHT22;45837;51.076;3.578;2023-04-03T03:27:17;18.90;51.80
59977;DHT22;45837;51.076;3.578;2023-04-03T03:29:43;18.90;51.90
59977;DHT22;45837;51.076;3.578;2023-04-03T03:32:09;18.90;51.70
59977;DHT22;45837;51.076;3.578;2023-04-03T03:34:35;18.90;51.80
59977;DHT22;45837;51.076;3.578;2023-04-03T03:37:01;18.90;51.80
59977;DHT22;45837;51.076;3.578;2023-04-03T03:39:28;18.90;51.70
59977;DHT22;45837;51.076;3.578;2023-04-03T03:41:53;18.90;51.70
59977;DHT22;45837;51.076;3.578;2023-04-03T03:44:19;18.90;52.00
59977;DHT22;45837;51.076;3.578;2023-04-03T03:46:45;18.80;51.60
59977;DHT22;45837;51.076;3.578;2023-04-03T03:49:11;18.90;51.70
59977;DHT22;45837;51.076;3.578;2023-04-03T03:51:38;18.80;51.70
59977;DHT22;45837;51.076;3.578;2023-04-03T03:54:05;18.80;51.50
59977;DHT22;45837;51.076;3.578;2023-04-03T03:56:31;18.80;51.50
59977;DHT22;45837;51.076;3.578;2023-04-03T03:58:57;18.80;51.30
59977;DHT22;45837;51.076;3.578;2023-04-03T04:01:23;18.80;51.90
59977;DHT22;45837;51.076;3.578;2023-04-03T04:03:51;18.80;51.40
59977;DHT22;45837;51.076;3.578;2023-04-03T04:06:20;18.80;51.70
59977;DHT22;45837;51.076;3.578;2023-04-03T04:08:47;18.70;51.50
59977;DHT22;45837;51.076;3.578;2023-04-03T04:11:14;18.80;51.60
59977;DHT22;45837;51.076;3.578;2023-04-03T04:13:40;18.70;51.70
59977;DHT22;45837;51.076;3.578;2023-04-03T04:16:07;18.70;51.60
59977;DHT22;45837;51.076;3.578;2023-04-03T04:18:33;18.70;51.70
59977;DHT22;45837;51.076;3.578;2023-04-03T04:20:59;18.70;51.70
59977;DHT22;45837;51.076;3.578;2023-04-03T04:23:25;18.70;51.40
59977;DHT22;45837;51.076;3.578;2023-04-03T04:25:51;18.70;51.60
59977;DHT22;45837;51.076;3.578;2023-04-03T04:28:18;18.70;51.50
59977;DHT22;45837;51.076;3.578;2023-04-03T04:30:46;18.70;51.50
59977;DHT22;45837;51.076;3.578;2023-04-03T04:33:12;18.70;51.70
59977;DHT22;45837;51.076;3.578;2023-04-03T04:35:41;18.70;51.20
59977;DHT22;45837;51.076;3.578;2023-04-03T04:38:07;18.60;51.10
59977;DHT22;45837;51.076;3.578;2023-04-03T04:40:34;18.70;51.20
59977;DHT22;45837;51.076;3.578;2023-04-03T04:43:00;18.70;51.40
59977;DHT22;45837;51.076;3.578;2023-04-03T04:45:26;18.60;51.50
59977;DHT22;45837;51.076;3.578;2023-04-03T04:47:53;18.60;51.40
59977;DHT22;45837;51.076;3.578;2023-04-03T04:50:20;18.60;51.30
59977;DHT22;45837;51.076;3.578;2023-04-03T04:52:46;18.60;51.60
59977;DHT22;45837;51.076;3.578;2023-04-03T04:55:12;18.60;51.80
59977;DHT22;45837;51.076;3.578;2023-04-03T04:57:38;18.60;51.80
59977;DHT22;45837;51.076;3.578;2023-04-03T05:00:04;18.60;51.60
59977;DHT22;45837;51.076;3.578;2023-04-03T05:02:30;18.60;51.30
59977;DHT22;45837;51.076;3.578;2023-04-03T05:04:56;18.60;51.70
59977;DHT22;45837;51.076;3.578;2023-04-03T05:07:26;18.60;50.80
59977;DHT22;45837;51.076;3.578;2023-04-03T05:09:52;18.60;51.80
59977;DHT22;45837;51.076;3.578;2023-04-03T05:12:17;18.60;51.60
59977;DHT22;45837;51.076;3.578;2023-04-03T05:14:50;18.60;51.50
59977;DHT22;45837;51.076;3.578;2023-04-03T05:17:16;18.60;51.60
59977;DHT22;45837;51.076;3.578;2023-04-03T05:19:47;18.60;51.50
59977;DHT22;45837;51.076;3.578;2023-04-03T05:22:14;18.60;52.00
59977;DHT22;45837;51.076;3.578;2023-04-03T05:24:40;18.60;51.50
59977;DHT22;45837;51.076;3.578;2023-04-03T05:27:07;18.60;52.00
59977;DHT22;45837;51.076;3.578;2023-04-03T05:29:37;18.50;50.70
59977;DHT22;45837;51.076;3.578;2023-04-03T05:32:03;18.50;51.50
59977;DHT22;45837;51.076;3.578;2023-04-03T05:34:29;18.50;51.80
59977;DHT22;45837;51.076;3.578;2023-04-03T05:36:55;18.50;51.20
59977;DHT22;45837;51.076;3.578;2023-04-03T05:39:21;18.50;51.70
59977;DHT22;45837;51.076;3.578;2023-04-03T05:41:48;18.50;52.50
59977;DHT22;45837;51.076;3.578;2023-04-03T05:44:14;18.60;52.40
59977;DHT22;45837;51.076;3.578;2023-04-03T05:46:43;18.60;52.70
59977;DHT22;45837;51.076;3.578;2023-04-03T05:49:09;18.60;53.30
59977;DHT22;45837;51.076;3.578;2023-04-03T05:51:36;18.70;53.40
59977;DHT22;45837;51.076;3.578;2023-04-03T05:54:13;18.70;53.20
59977;DHT22;45837;51.076;3.578;2023-04-03T05:56:42;18.80;53.20
59977;DHT22;45837;51.076;3.578;2023-04-03T05:59:08;18.90;53.90
59977;DHT22;45837;51.076;3.578;2023-04-03T06:01:35;18.90;53.70
59977;DHT22;45837;51.076;3.578;2023-04-03T06:04:00;18.90;54.20
59977;DHT22;45837;51.076;3.578;2023-04-03T06:06:42;19.00;54.20
59977;DHT22;45837;51.076;3.578;2023-04-03T06:09:09;19.00;53.80
59977;DHT22;45837;51.076;3.578;2023-04-03T06:11:34;19.10;54.30
59977;DHT22;45837;51.076;3.578;2023-04-03T06:14:01;19.20;54.10
59977;DHT22;45837;51.076;3.578;2023-04-03T06:16:28;19.30;54.40
59977;DHT22;45837;51.076;3.578;2023-04-03T06:18:54;19.40;54.20
59977;DHT22;45837;51.076;3.578;2023-04-03T06:21:21;19.50;54.80
59977;DHT22;45837;51.076;3.578;2023-04-03T06:23:46;19.60;55.20
59977;DHT22;45837;51.076;3.578;2023-04-03T06:26:12;19.60;55.20
59977;DHT22;45837;51.076;3.578;2023-04-03T06:28:38;19.80;55.10
59977;DHT22;45837;51.076;3.578;2023-04-03T06:31:03;19.80;54.90
59977;DHT22;45837;51.076;3.578;2023-04-03T06:33:29;20.00;54.40
59977;DHT22;45837;51.076;3.578;2023-04-03T06:35:59;20.10;54.60
59977;DHT22;45837;51.076;3.578;2023-04-03T06:38:28;20.10;54.20
59977;DHT22;45837;51.076;3.578;2023-04-03T06:40:53;20.20;54.90
59977;DHT22;45837;51.076;3.578;2023-04-03T06:43:19;20.40;54.70
59977;DHT22;45837;51.076;3.578;2023-04-03T06:45:46;20.50;54.50
59977;DHT22;45837;51.076;3.578;2023-04-03T06:48:12;20.60;54.10
59977;DHT22;45837;51.076;3.578;2023-04-03T06:50:38;20.60;54.20
59977;DHT22;45837;51.076;3.578;2023-04-03T06:53:04;20.70;54.20
59977;DHT22;45837;51.076;3.578;2023-04-03T06:55:29;20.80;54.40
59977;DHT22;45837;51.076;3.578;2023-04-03T06:57:55;20.80;53.90
59977;DHT22;45837;51.076;3.578;2023-04-03T07:00:21;20.80;53.80
59977;DHT22;45837;51.076;3.578;2023-04-03T07:02:47;20.90;53.90
59977;DHT22;45837;51.076;3.578;2023-04-03T07:05:12;20.80;53.90
59977;DHT22;45837;51.076;3.578;2023-04-03T07:07:38;20.80;54.10
59977;DHT22;45837;51.076;3.578;2023-04-03T07:10:05;20.80;53.90
59977;DHT22;45837;51.076;3.578;2023-04-03T07:12:31;20.80;53.20
59977;DHT22;45837;51.076;3.578;2023-04-03T07:14:58;20.90;53.00
59977;DHT22;45837;51.076;3.578;2023-04-03T07:17:23;20.90;52.60
59977;DHT22;45837;51.076;3.578;2023-04-03T07:19:50;20.90;53.30
59977;DHT22;45837;51.076;3.578;2023-04-03T07:22:16;20.80;53.30
59977;DHT22;45837;51.076;3.578;2023-04-03T07:24:42;20.80;53.50
59977;DHT22;45837;51.076;3.578;2023-04-03T07:27:08;20.80;53.90
59977;DHT22;45837;51.076;3.578;2023-04-03T07:29:34;20.80;54.60
59977;DHT22;45837;51.076;3.578;2023-04-03T07:32:00;20.90;54.00
59977;DHT22;45837;51.076;3.578;2023-04-03T07:34:26;20.90;54.20
59977;DHT22;45837;51.076;3.578;2023-04-03T07:36:52;20.90;54.30
59977;DHT22;45837;51.076;3.578;2023-04-03T07:39:18;20.90;53.90
59977;DHT22;45837;51.076;3.578;2023-04-03T07:41:44;20.90;53.20
59977;DHT22;45837;51.076;3.578;2023-04-03T07:44:09;21.00;53.00
59977;DHT22;45837;51.076;3.578;2023-04-03T07:46:36;21.00;52.80
59977;DHT22;45837;51.076;3.578;2023-04-03T07:49:02;21.00;52.10
59977;DHT22;45837;51.076;3.578;2023-04-03T07:51:27;21.00;52.30
59977;DHT22;45837;51.076;3.578;2023-04-03T07:53:55;21.00;51.70
59977;DHT22;45837;51.076;3.578;2023-04-03T07:56:21;21.00;51.30
59977;DHT22;45837;51.076;3.578;2023-04-03T07:58:46;21.10;51.10
59977;DHT22;45837;51.076;3.578;2023-04-03T08:01:12;21.10;51.50
59977;DHT22;45837;51.076;3.578;2023-04-03T08:03:38;21.00;51.30
59977;DHT22;45837;51.076;3.578;2023-04-03T08:06:04;21.00;51.10
59977;DHT22;45837;51.076;3.578;2023-04-03T08:08:31;21.10;50.80
59977;DHT22;45837;51.076;3.578;2023-04-03T08:10:58;21.00;51.20
59977;DHT22;45837;51.076;3.578;2023-04-03T08:13:24;21.00;50.70
59977;DHT22;45837;51.076;3.578;2023-04-03T08:15:50;21.00;51.10
59977;DHT22;45837;51.076;3.578;2023-04-03T08:18:16;21.00;50.80
59977;DHT22;45837;51.076;3.578;2023-04-03T08:20:42;21.00;50.50
59977;DHT22;45837;51.076;3.578;2023-04-03T08:23:08;21.00;50.50
59977;DHT22;45837;51.076;3.578;2023-04-03T08:25:41;21.00;50.10
59977;DHT22;45837;51.076;3.578;2023-04-03T08:28:07;21.00;50.20
59977;DHT22;45837;51.076;3.578;2023-04-03T08:30:33;21.00;50.00
59977;DHT22;45837;51.076;3.578;2023-04-03T08:33:02;20.90;49.00
59977;DHT22;45837;51.076;3.578;2023-04-03T08:35:28;20.90;49.20
59977;DHT22;45837;51.076;3.578;2023-04-03T08:37:54;20.90;49.60
59977;DHT22;45837;51.076;3.578;2023-04-03T08:40:19;21.00;49.80
59977;DHT22;45837;51.076;3.578;2023-04-03T08:45:20;21.00;50.10
59977;DHT22;45837;51.076;3.578;2023-04-03T08:47:53;21.00;50.40
59977;DHT22;45837;51.076;3.578;2023-04-03T08:50:23;21.00;50.60
59977;DHT22;45837;51.076;3.578;2023-04-03T08:52:52;21.00;50.70
59977;DHT22;45837;51.076;3.578;2023-04-03T08:55:31;20.90;50.70
59977;DHT22;45837;51.076;3.578;2023-04-03T08:58:33;20.90;50.70
59977;DHT22;45837;51.076;3.578;2023-04-03T09:00:52;21.00;50.80
59977;DHT22;45837;51.076;3.578;2023-04-03T09:03:20;21.00;50.90
59977;DHT22;45837;51.076;3.578;2023-04-03T09:08:31;20.90;49.60
59977;DHT22;45837;51.076;3.578;2023-04-03T09:16:20;20.80;49.60
59977;DHT22;45837;51.076;3.578;2023-04-03T09:18:48;20.90;49.90
59977;DHT22;45837;51.076;3.578;2023-04-03T09:21:20;20.90;50.20
59977;DHT22;45837;51.076;3.578;2023-04-03T09:23:52;20.90;50.40
59977;DHT22;45837;51.076;3.578;2023-04-03T09:26:36;20.90;50.40
59977;DHT22;45837;51.076;3.578;2023-04-03T09:29:05;20.90;50.50
59977;DHT22;45837;51.076;3.578;2023-04-03T09:31:38;21.00;50.80
59977;DHT22;45837;51.076;3.578;2023-04-03T09:34:17;20.90;50.70
59977;DHT22;45837;51.076;3.578;2023-04-03T09:36:46;21.00;51.00
59977;DHT22;45837;51.076;3.578;2023-04-03T09:39:14;21.00;50.90
59977;DHT22;45837;51.076;3.578;2023-04-03T09:41:40;21.00;51.00
59977;DHT22;45837;51.076;3.578;2023-04-03T09:44:18;21.00;51.10
59977;DHT22;45837;51.076;3.578;2023-04-03T09:46:45;21.00;51.10
59977;DHT22;45837;51.076;3.578;2023-04-03T09:49:11;21.00;51.60
59977;DHT22;45837;51.076;3.578;2023-04-03T09:51:37;21.00;51.50
59977;DHT22;45837;51.076;3.578;2023-04-03T09:57:05;21.00;51.60
59977;DHT22;45837;51.076;3.578;2023-04-03T09:59:31;21.00;51.70
59977;DHT22;45837;51.076;3.578;2023-04-03T10:01:59;21.00;52.10
59977;DHT22;45837;51.076;3.578;2023-04-03T10:04:24;21.00;52.10
59977;DHT22;45837;51.076;3.578;2023-04-03T10:06:54;21.00;52.50
59977;DHT22;45837;51.076;3.578;2023-04-03T10:09:24;21.00;52.10
59977;DHT22;45837;51.076;3.578;2023-04-03T10:14:27;21.00;51.60
59977;DHT22;45837;51.076;3.578;2023-04-03T10:16:56;21.00;50.90
59977;DHT22;45837;51.076;3.578;2023-04-03T10:19:33;21.00;50.00
59977;DHT22;45837;51.076;3.578;2023-04-03T10:22:00;21.10;50.00
59977;DHT22;45837;51.076;3.578;2023-04-03T10:27:07;21.10;49.00
59977;DHT22;45837;51.076;3.578;2023-04-03T10:29:37;21.10;47.60
59977;DHT22;45837;51.076;3.578;2023-04-03T10:35:20;21.10;46.50
59977;DHT22;45837;51.076;3.578;2023-04-03T10:40:28;21.10;47.60
59977;DHT22;45837;51.076;3.578;2023-04-03T10:55:58;21.10;48.30
59977;DHT22;45837;51.076;3.578;2023-04-03T10:58:31;21.10;48.70
59977;DHT22;45837;51.076;3.578;2023-04-03T11:01:01;21.10;49.00
59977;DHT22;45837;51.076;3.578;2023-04-03T11:03:30;21.10;49.20
59977;DHT22;45837;51.076;3.578;2023-04-03T11:05:59;21.10;49.20
59977;DHT22;45837;51.076;3.578;2023-04-03T11:08:32;21.10;49.30
59977;DHT22;45837;51.076;3.578;2023-04-03T11:10:59;21.10;49.30
59977;DHT22;45837;51.076;3.578;2023-04-03T11:16:13;21.00;49.10
59977;DHT22;45837;51.076;3.578;2023-04-03T11:18:51;21.00;49.10
59977;DHT22;45837;51.076;3.578;2023-04-03T11:23:44;21.00;49.50
59977;DHT22;45837;51.076;3.578;2023-04-03T11:26:16;21.00;49.10
59977;DHT22;45837;51.076;3.578;2023-04-03T11:28:42;21.00;49.10
59977;DHT22;45837;51.076;3.578;2023-04-03T11:31:15;21.00;49.30
59977;DHT22;45837;51.076;3.578;2023-04-03T11:36:22;21.00;49.00
59977;DHT22;45837;51.076;3.578;2023-04-03T11:38:51;20.90;49.50
59977;DHT22;45837;51.076;3.578;2023-04-03T11:41:18;20.90;49.10
59977;DHT22;45837;51.076;3.578;2023-04-03T11:44:06;20.90;49.20
59977;DHT22;45837;51.076;3.578;2023-04-03T11:46:49;20.90;49.00
59977;DHT22;45837;51.076;3.578;2023-04-03T11:51:59;20.90;49.10
59977;DHT22;45837;51.076;3.578;2023-04-03T11:59:47;20.80;49.20
59977;DHT22;45837;51.076;3.578;2023-04-03T12:07:41;20.80;49.40
59977;DHT22;45837;51.076;3.578;2023-04-03T12:10:17;20.80;49.70
59977;DHT22;45837;51.076;3.578;2023-04-03T12:12:43;20.70;49.50
59977;DHT22;45837;51.076;3.578;2023-04-03T12:15:38;20.70;49.60
59977;DHT22;45837;51.076;3.578;2023-04-03T12:23:33;20.60;48.90
59977;DHT22;45837;51.076;3.578;2023-04-03T12:26:03;20.60;48.20
59977;DHT22;45837;51.076;3.578;2023-04-03T12:28:35;20.60;48.70
59977;DHT22;45837;51.076;3.578;2023-04-03T12:31:01;20.60;48.40
59977;DHT22;45837;51.076;3.578;2023-04-03T12:36:05;20.60;48.40
59977;DHT22;45837;51.076;3.578;2023-04-03T12:38:37;20.60;48.40
59977;DHT22;45837;51.076;3.578;2023-04-03T12:43:50;20.50;48.50
59977;DHT22;45837;51.076;3.578;2023-04-03T12:46:19;20.50;48.50
59977;DHT22;45837;51.076;3.578;2023-04-03T12:48:48;20.50;48.60
59977;DHT22;45837;51.076;3.578;2023-04-03T12:53:56;20.40;47.90
59977;DHT22;45837;51.076;3.578;2023-04-03T12:56:27;20.40;47.20
59977;DHT22;45837;51.076;3.578;2023-04-03T12:58:54;20.40;45.50
59977;DHT22;45837;51.076;3.578;2023-04-03T13:01:21;20.40;45.80
59977;DHT22;45837;51.076;3.578;2023-04-03T13:03:48;20.40;46.30
59977;DHT22;45837;51.076;3.578;2023-04-03T13:06:22;20.40;46.60
59977;DHT22;45837;51.076;3.578;2023-04-03T13:08:49;20.40;46.40
59977;DHT22;45837;51.076;3.578;2023-04-03T13:11:15;20.40;46.80
59977;DHT22;45837;51.076;3.578;2023-04-03T13:13:53;20.40;47.60
59977;DHT22;45837;51.076;3.578;2023-04-03T13:16:19;20.40;47.20
59977;DHT22;45837;51.076;3.578;2023-04-03T13:18:44;20.40;47.80
59977;DHT22;45837;51.076;3.578;2023-04-03T13:21:17;20.40;47.90
59977;DHT22;45837;51.076;3.578;2023-04-03T13:23:45;20.40;47.70
59977;DHT22;45837;51.076;3.578;2023-04-03T13:26:11;20.40;47.80
59977;DHT22;45837;51.076;3.578;2023-04-03T13:28:38;20.40;48.20
59977;DHT22;45837;51.076;3.578;2023-04-03T13:31:07;20.40;48.10
59977;DHT22;45837;51.076;3.578;2023-04-03T13:33:36;20.40;48.20
59977;DHT22;45837;51.076;3.578;2023-04-03T13:36:24;20.40;48.20
59977;DHT22;45837;51.076;3.578;2023-04-03T13:39:00;20.40;47.80
59977;DHT22;45837;51.076;3.578;2023-04-03T13:41:29;20.40;46.80
59977;DHT22;45837;51.076;3.578;2023-04-03T13:43:55;20.40;46.70
59977;DHT22;45837;51.076;3.578;2023-04-03T13:46:23;20.30;46.60
59977;DHT22;45837;51.076;3.578;2023-04-03T13:48:51;20.40;45.50
59977;DHT22;45837;51.076;3.578;2023-04-03T13:51:21;20.30;45.50
59977;DHT22;45837;51.076;3.578;2023-04-03T13:53:49;20.40;45.20
59977;DHT22;45837;51.076;3.578;2023-04-03T13:56:17;20.30;44.80
59977;DHT22;45837;51.076;3.578;2023-04-03T13:58:52;20.30;44.60
59977;DHT22;45837;51.076;3.578;2023-04-03T14:01:19;20.30;44.50
59977;DHT22;45837;51.076;3.578;2023-04-03T14:03:47;20.30;43.70
59977;DHT22;45837;51.076;3.578;2023-04-03T14:06:14;20.30;43.90
59977;DHT22;45837;51.076;3.578;2023-04-03T14:08:41;20.30;44.10
59977;DHT22;45837;51.076;3.578;2023-04-03T14:11:14;20.20;43.60
59977;DHT22;45837;51.076;3.578;2023-04-03T14:13:41;20.30;43.50
59977;DHT22;45837;51.076;3.578;2023-04-03T14:16:06;20.20;43.90
59977;DHT22;45837;51.076;3.578;2023-04-03T14:18:32;20.30;44.40
59977;DHT22;45837;51.076;3.578;2023-04-03T14:20:58;20.20;45.00
59977;DHT22;45837;51.076;3.578;2023-04-03T14:23:24;20.20;44.90
59977;DHT22;45837;51.076;3.578;2023-04-03T14:25:49;20.20;44.80
59977;DHT22;45837;51.076;3.578;2023-04-03T14:28:16;20.20;44.50
59977;DHT22;45837;51.076;3.578;2023-04-03T14:30:42;20.20;44.00
59977;DHT22;45837;51.076;3.578;2023-04-03T14:33:10;20.20;43.90
59977;DHT22;45837;51.076;3.578;2023-04-03T14:35:38;20.30;43.80
59977;DHT22;45837;51.076;3.578;2023-04-03T14:38:05;20.30;44.20
59977;DHT22;45837;51.076;3.578;2023-04-03T14:40:36;20.40;43.50
59977;DHT22;45837;51.076;3.578;2023-04-03T14:43:02;20.40;43.90
59977;DHT22;45837;51.076;3.578;2023-04-03T14:45:27;20.50;44.00
59977;DHT22;45837;51.076;3.578;2023-04-03T14:47:54;20.60;43.60
59977;DHT22;45837;51.076;3.578;2023-04-03T14:50:22;20.70;42.80
59977;DHT22;45837;51.076;3.578;2023-04-03T14:52:48;20.80;42.60
59977;DHT22;45837;51.076;3.578;2023-04-03T14:55:15;20.90;42.30
59977;DHT22;45837;51.076;3.578;2023-04-03T14:57:41;20.90;42.40
59977;DHT22;45837;51.076;3.578;2023-04-03T15:00:07;21.10;42.30
59977;DHT22;45837;51.076;3.578;2023-04-03T15:02:37;21.10;41.60
59977;DHT22;45837;51.076;3.578;2023-04-03T15:05:04;21.10;41.80
59977;DHT22;45837;51.076;3.578;2023-04-03T15:07:32;21.10;41.90
59977;DHT22;45837;51.076;3.578;2023-04-03T15:10:00;21.10;41.60
59977;DHT22;45837;51.076;3.578;2023-04-03T15:12:27;21.10;41.40
59977;DHT22;45837;51.076;3.578;2023-04-03T15:14:52;21.20;42.00
59977;DHT22;45837;51.076;3.578;2023-04-03T15:17:19;21.20;41.80
59977;DHT22;45837;51.076;3.578;2023-04-03T15:19:47;21.20;41.30
59977;DHT22;45837;51.076;3.578;2023-04-03T15:22:13;21.20;41.10
59977;DHT22;45837;51.076;3.578;2023-04-03T15:24:39;21.20;41.10
59977;DHT22;45837;51.076;3.578;2023-04-03T15:27:05;21.20;42.00
59977;DHT22;45837;51.076;3.578;2023-04-03T15:29:30;21.10;42.10
59977;DHT22;45837;51.076;3.578;2023-04-03T15:31:56;21.10;44.30
59977;DHT22;45837;51.076;3.578;2023-04-03T15:34:22;21.20;45.30
59977;DHT22;45837;51.076;3.578;2023-04-03T15:36:47;21.30;45.20
59977;DHT22;45837;51.076;3.578;2023-04-03T15:39:13;21.30;45.90
59977;DHT22;45837;51.076;3.578;2023-04-03T15:41:39;21.30;45.60
59977;DHT22;45837;51.076;3.578;2023-04-03T15:44:05;21.40;46.50
59977;DHT22;45837;51.076;3.578;2023-04-03T15:46:32;21.40;46.40
59977;DHT22;45837;51.076;3.578;2023-04-03T15:48:57;21.40;46.10
59977;DHT22;45837;51.076;3.578;2023-04-03T15:51:23;21.40;47.40
59977;DHT22;45837;51.076;3.578;2023-04-03T15:53:49;21.50;47.50
59977;DHT22;45837;51.076;3.578;2023-04-03T15:56:14;21.40;47.00
59977;DHT22;45837;51.076;3.578;2023-04-03T15:58:41;21.40;47.00
59977;DHT22;45837;51.076;3.578;2023-04-03T16:01:08;21.50;47.70
59977;DHT22;45837;51.076;3.578;2023-04-03T16:03:34;21.30;46.90
59977;DHT22;45837;51.076;3.578;2023-04-03T16:06:00;21.40;48.10
59977;DHT22;45837;51.076;3.578;2023-04-03T16:08:26;21.40;47.60
59977;DHT22;45837;51.076;3.578;2023-04-03T16:10:52;21.40;47.90
59977;DHT22;45837;51.076;3.578;2023-04-03T16:13:18;21.40;48.70
59977;DHT22;45837;51.076;3.578;2023-04-03T16:15:43;21.40;48.80
59977;DHT22;45837;51.076;3.578;2023-04-03T16:18:09;21.40;48.50
59977;DHT22;45837;51.076;3.578;2023-04-03T16:20:35;21.40;48.10
59977;DHT22;45837;51.076;3.578;2023-04-03T16:23:01;21.40;49.30
59977;DHT22;45837;51.076;3.578;2023-04-03T16:25:27;21.30;48.50
59977;DHT22;45837;51.076;3.578;2023-04-03T16:27:53;21.40;49.10
59977;DHT22;45837;51.076;3.578;2023-04-03T16:30:19;21.40;48.50
59977;DHT22;45837;51.076;3.578;2023-04-03T16:32:45;21.40;48.80
59977;DHT22;45837;51.076;3.578;2023-04-03T16:35:11;21.40;48.30
59977;DHT22;45837;51.076;3.578;2023-04-03T16:37:37;21.40;48.50
59977;DHT22;45837;51.076;3.578;2023-04-03T16:40:03;21.40;48.20
59977;DHT22;45837;51.076;3.578;2023-04-03T16:42:30;21.40;48.40
59977;DHT22;45837;51.076;3.578;2023-04-03T16:44:56;21.40;48.50
59977;DHT22;45837;51.076;3.578;2023-04-03T16:47:22;21.30;48.80
59977;DHT22;45837;51.076;3.578;2023-04-03T16:49:47;21.30;49.00
59977;DHT22;45837;51.076;3.578;2023-04-03T16:52:13;21.40;48.60
59977;DHT22;45837;51.076;3.578;2023-04-03T16:54:39;21.40;48.30